sensor_id;sensor_type;location;lat;lon;timestamp;P1;durP1;ratioP1;P2;durP2;ratioP2
72791;SDS011;60907;53.268;8.764;2022-08-23T00:01:11;2.70;;;1.75;;
72791;SDS011;60907;53.268;8.764;2022-08-23T00:03:38;2.75;;;2.00;;
72791;SDS011;60907;53.268;8.764;2022-08-23T00:06:04;4.63;;;1.67;;
72791;SDS011;60907;53.268;8.764;2022-08-23T00:08:30;4.03;;;2.10;;
72791;SDS011;60907;53.268;8.764;2022-08-23T00:10:56;2.53;;;2.05;;
72791;SDS011;60907;53.268;8.764;2022-08-23T00:13:21;3.28;;;2.00;;
72791;SDS011;60907;53.268;8.764;2022-08-23T00:15:47;3.80;;;2.25;;
72791;SDS011;60907;53.268;8.764;2022-08-23T00:18:12;3.30;;;2.15;;
72791;SDS011;60907;53.268;8.764;2022-08-23T00:20:41;2.30;;;1.70;;
72791;SDS011;60907;53.268;8.764;2022-08-23T00:23:06;2.90;;;1.63;;
72791;SDS011;60907;53.268;8.764;2022-08-23T00:25:32;3.72;;;2.20;;
72791;SDS011;60907;53.268;8.764;2022-08-23T00:27:57;4.13;;;1.90;;
72791;SDS011;60907;53.268;8.764;2022-08-23T00:30:23;3.88;;;1.88;;
72791;SDS011;60907;53.268;8.764;2022-08-23T00:32:48;3.13;;;2.22;;
72791;SDS011;60907;53.268;8.764;2022-08-23T00:35:14;3.30;;;1.65;;
72791;SDS011;60907;53.268;8.764;2022-08-23T00:37:41;4.53;;;2.20;;
72791;SDS011;60907;53.268;8.764;2022-08-23T00:40:07;3.33;;;1.92;;
72791;SDS011;60907;53.268;8.764;2022-08-23T00:42:42;3.72;;;2.40;;
72791;SDS011;60907;53.268;8.764;2022-08-23T00:48:32;4.07;;;1.77;;
72791;SDS011;60907;53.268;8.764;2022-08-23T00:51:01;5.03;;;2.25;;
72791;SDS011;60907;53.268;8.764;2022-08-23T00:53:33;4.97;;;2.10;;
72791;SDS011;60907;53.268;8.764;2022-08-23T00:56:03;2.88;;;2.17;;
72791;SDS011;60907;53.268;8.764;2022-08-23T00:58:30;2.22;;;2.03;;
72791;SDS011;60907;53.268;8.764;2022-08-23T01:00:56;3.50;;;1.80;;
72791;SDS011;60907;53.268;8.764;2022-08-23T01:03:23;2.78;;;2.22;;
72791;SDS011;60907;53.268;8.764;2022-08-23T01:08:16;5.15;;;2.20;;
72791;SDS011;60907;53.268;8.764;2022-08-23T01:13:14;3.90;;;2.10;;
72791;SDS011;60907;53.268;8.764;2022-08-23T01:15:52;3.72;;;1.90;;
72791;SDS011;60907;53.268;8.764;2022-08-23T01:18:25;4.53;;;2.15;;
72791;SDS011;60907;53.268;8.764;2022-08-23T01:21:26;4.43;;;2.20;;
72791;SDS011;60907;53.268;8.764;2022-08-23T01:23:51;3.75;;;2.13;;
72791;SDS011;60907;53.268;8.764;2022-08-23T01:26:19;3.75;;;1.80;;
72791;SDS011;60907;53.268;8.764;2022-08-23T01:28:46;4.55;;;1.98;;
72791;SDS011;60907;53.268;8.764;2022-08-23T01:31:11;2.90;;;1.92;;
72791;SDS011;60907;53.268;8.764;2022-08-23T01:33:38;4.60;;;2.20;;
72791;SDS011;60907;53.268;8.764;2022-08-23T01:36:07;2.33;;;2.13;;
72791;SDS011;60907;53.268;8.764;2022-08-23T01:38:34;4.65;;;2.00;;
72791;SDS011;60907;53.268;8.764;2022-08-23T01:40:59;3.95;;;2.20;;
72791;SDS011;60907;53.268;8.764;2022-08-23T01:43:25;4.07;;;2.20;;
72791;SDS011;60907;53.268;8.764;2022-08-23T01:45:51;3.22;;;2.20;;
72791;SDS011;60907;53.268;8.764;2022-08-23T01:48:17;3.70;;;2.22;;
72791;SDS011;60907;53.268;8.764;2022-08-23T01:50:44;3.55;;;2.50;;
72791;SDS011;60907;53.268;8.764;2022-08-23T01:53:09;4.75;;;2.10;;
72791;SDS011;60907;53.268;8.764;2022-08-23T01:55:35;3.63;;;2.38;;
72791;SDS011;60907;53.268;8.764;2022-08-23T01:58:03;4.38;;;2.10;;
72791;SDS011;60907;53.268;8.764;2022-08-23T02:00:30;4.05;;;2.10;;
72791;SDS011;60907;53.268;8.764;2022-08-23T02:02:59;3.80;;;2.58;;
72791;SDS011;60907;53.268;8.764;2022-08-23T02:05:26;4.07;;;2.10;;
72791;SDS011;60907;53.268;8.764;2022-08-23T02:07:51;4.57;;;2.03;;
72791;SDS011;60907;53.268;8.764;2022-08-23T02:10:17;3.88;;;2.35;;
72791;SDS011;60907;53.268;8.764;2022-08-23T02:12:43;4.35;;;2.60;;
72791;SDS011;60907;53.268;8.764;2022-08-23T02:15:09;6.25;;;2.08;;
72791;SDS011;60907;53.268;8.764;2022-08-23T02:17:34;3.88;;;2.67;;
72791;SDS011;60907;53.268;8.764;2022-08-23T02:20:00;5.80;;;2.38;;
72791;SDS011;60907;53.268;8.764;2022-08-23T02:22:28;3.65;;;2.20;;
72791;SDS011;60907;53.268;8.764;2022-08-23T02:24:53;3.33;;;2.20;;
72791;SDS011;60907;53.268;8.764;2022-08-23T02:27:19;3.80;;;2.60;;
72791;SDS011;60907;53.268;8.764;2022-08-23T02:29:45;3.30;;;2.35;;
72791;SDS011;60907;53.268;8.764;2022-08-23T02:32:12;2.92;;;2.30;;
72791;SDS011;60907;53.268;8.764;2022-08-23T02:34:40;3.20;;;2.03;;
72791;SDS011;60907;53.268;8.764;2022-08-23T02:37:06;6.25;;;2.22;;
72791;SDS011;60907;53.268;8.764;2022-08-23T02:39:33;4.47;;;2.10;;
72791;SDS011;60907;53.268;8.764;2022-08-23T02:41:58;5.35;;;2.17;;
72791;SDS011;60907;53.268;8.764;2022-08-23T02:44:25;3.30;;;2.28;;
72791;SDS011;60907;53.268;8.764;2022-08-23T02:46:50;3.90;;;2.08;;
72791;SDS011;60907;53.268;8.764;2022-08-23T02:49:16;3.55;;;2.20;;
72791;SDS011;60907;53.268;8.764;2022-08-23T02:51:42;4.20;;;2.00;;
72791;SDS011;60907;53.268;8.764;2022-08-23T02:54:08;5.22;;;2.47;;
72791;SDS011;60907;53.268;8.764;2022-08-23T02:56:33;6.03;;;2.40;;
72791;SDS011;60907;53.268;8.764;2022-08-23T02:59:00;2.55;;;2.15;;
72791;SDS011;60907;53.268;8.764;2022-08-23T03:01:29;3.83;;;2.17;;
72791;SDS011;60907;53.268;8.764;2022-08-23T03:03:59;6.95;;;2.63;;
72791;SDS011;60907;53.268;8.764;2022-08-23T03:06:26;3.47;;;1.92;;
72791;SDS011;60907;53.268;8.764;2022-08-23T03:08:52;6.35;;;2.80;;
72791;SDS011;60907;53.268;8.764;2022-08-23T03:11:19;3.83;;;2.25;;
72791;SDS011;60907;53.268;8.764;2022-08-23T03:13:46;4.18;;;2.40;;
72791;SDS011;60907;53.268;8.764;2022-08-23T03:16:13;4.45;;;2.10;;
72791;SDS011;60907;53.268;8.764;2022-08-23T03:18:39;4.22;;;2.20;;
72791;SDS011;60907;53.268;8.764;2022-08-23T03:21:05;10.07;;;2.70;;
72791;SDS011;60907;53.268;8.764;2022-08-23T03:23:31;5.85;;;2.47;;
72791;SDS011;60907;53.268;8.764;2022-08-23T03:25:57;4.45;;;2.60;;
72791;SDS011;60907;53.268;8.764;2022-08-23T03:28:23;6.43;;;2.63;;
72791;SDS011;60907;53.268;8.764;2022-08-23T03:30:50;6.97;;;2.25;;
72791;SDS011;60907;53.268;8.764;2022-08-23T03:33:15;6.97;;;2.35;;
72791;SDS011;60907;53.268;8.764;2022-08-23T03:35:41;5.38;;;2.53;;
72791;SDS011;60907;53.268;8.764;2022-08-23T03:38:07;6.15;;;2.95;;
72791;SDS011;60907;53.268;8.764;2022-08-23T03:40:32;8.38;;;2.63;;
72791;SDS011;60907;53.268;8.764;2022-08-23T03:42:58;5.78;;;2.67;;
72791;SDS011;60907;53.268;8.764;2022-08-23T03:45:25;4.35;;;2.25;;
72791;SDS011;60907;53.268;8.764;2022-08-23T03:47:51;6.68;;;2.60;;
72791;SDS011;60907;53.268;8.764;2022-08-23T03:50:16;5.30;;;2.72;;
72791;SDS011;60907;53.268;8.764;2022-08-23T03:52:42;8.73;;;2.78;;
72791;SDS011;60907;53.268;8.764;2022-08-23T03:55:08;3.65;;;2.67;;
72791;SDS011;60907;53.268;8.764;2022-08-23T03:57:33;4.20;;;2.40;;
72791;SDS011;60907;53.268;8.764;2022-08-23T03:59:59;5.40;;;2.60;;
72791;SDS011;60907;53.268;8.764;2022-08-23T04:02:24;4.55;;;3.10;;
72791;SDS011;60907;53.268;8.764;2022-08-23T04:04:50;4.65;;;2.72;;
72791;SDS011;60907;53.268;8.764;2022-08-23T04:07:19;3.53;;;2.67;;
72791;SDS011;60907;53.268;8.764;2022-08-23T04:09:45;6.53;;;2.80;;
72791;SDS011;60907;53.268;8.764;2022-08-23T04:12:11;5.78;;;2.72;;
72791;SDS011;60907;53.268;8.764;2022-08-23T04:14:37;3.63;;;2.42;;
72791;SDS011;60907;53.268;8.764;2022-08-23T04:17:02;4.18;;;2.72;;
72791;SDS011;60907;53.268;8.764;2022-08-23T04:19:28;4.88;;;2.53;;
72791;SDS011;60907;53.268;8.764;2022-08-23T04:21:53;5.55;;;2.78;;
72791;SDS011;60907;53.268;8.764;2022-08-23T04:24:19;3.88;;;2.58;;
72791;SDS011;60907;53.268;8.764;2022-08-23T04:26:44;5.35;;;2.70;;
72791;SDS011;60907;53.268;8.764;2022-08-23T04:29:10;4.03;;;2.92;;
72791;SDS011;60907;53.268;8.764;2022-08-23T04:31:38;6.00;;;2.60;;
72791;SDS011;60907;53.268;8.764;2022-08-23T04:34:04;4.35;;;2.47;;
72791;SDS011;60907;53.268;8.764;2022-08-23T04:36:34;3.13;;;2.50;;
72791;SDS011;60907;53.268;8.764;2022-08-23T04:39:02;3.28;;;2.50;;
72791;SDS011;60907;53.268;8.764;2022-08-23T04:41:28;3.50;;;2.30;;
72791;SDS011;60907;53.268;8.764;2022-08-23T04:44:12;4.07;;;2.60;;
72791;SDS011;60907;53.268;8.764;2022-08-23T04:46:39;6.55;;;2.95;;
72791;SDS011;60907;53.268;8.764;2022-08-23T04:49:05;6.35;;;2.60;;
72791;SDS011;60907;53.268;8.764;2022-08-23T04:51:30;6.43;;;2.70;;
72791;SDS011;60907;53.268;8.764;2022-08-23T04:53:56;4.32;;;2.15;;
72791;SDS011;60907;53.268;8.764;2022-08-23T04:56:21;3.10;;;2.28;;
72791;SDS011;60907;53.268;8.764;2022-08-23T04:58:49;4.88;;;2.72;;
72791;SDS011;60907;53.268;8.764;2022-08-23T05:01:15;5.18;;;3.20;;
72791;SDS011;60907;53.268;8.764;2022-08-23T05:03:40;5.55;;;2.53;;
72791;SDS011;60907;53.268;8.764;2022-08-23T05:06:06;5.70;;;2.63;;
72791;SDS011;60907;53.268;8.764;2022-08-23T05:08:32;4.32;;;2.25;;
72791;SDS011;60907;53.268;8.764;2022-08-23T05:10:59;4.72;;;2.75;;
72791;SDS011;60907;53.268;8.764;2022-08-23T05:13:26;6.63;;;2.70;;
72791;SDS011;60907;53.268;8.764;2022-08-23T05:15:52;3.33;;;2.60;;
72791;SDS011;60907;53.268;8.764;2022-08-23T05:18:18;3.22;;;2.55;;
72791;SDS011;60907;53.268;8.764;2022-08-23T05:20:44;3.58;;;2.83;;
72791;SDS011;60907;53.268;8.764;2022-08-23T05:23:09;4.25;;;2.33;;
72791;SDS011;60907;53.268;8.764;2022-08-23T05:25:35;5.85;;;2.50;;
72791;SDS011;60907;53.268;8.764;2022-08-23T05:28:17;6.88;;;2.63;;
72791;SDS011;60907;53.268;8.764;2022-08-23T05:30:54;8.00;;;2.10;;
72791;SDS011;60907;53.268;8.764;2022-08-23T05:33:25;6.93;;;3.42;;
72791;SDS011;60907;53.268;8.764;2022-08-23T05:35:51;4.65;;;2.70;;
72791;SDS011;60907;53.268;8.764;2022-08-23T05:38:17;3.40;;;2.75;;
72791;SDS011;60907;53.268;8.764;2022-08-23T05:40:42;4.50;;;3.00;;
72791;SDS011;60907;53.268;8.764;2022-08-23T05:43:08;4.97;;;2.05;;
72791;SDS011;60907;53.268;8.764;2022-08-23T05:45:34;5.78;;;2.85;;
72791;SDS011;60907;53.268;8.764;2022-08-23T05:48:00;5.28;;;2.60;;
72791;SDS011;60907;53.268;8.764;2022-08-23T05:50:25;3.92;;;2.50;;
72791;SDS011;60907;53.268;8.764;2022-08-23T05:52:51;5.00;;;3.22;;
72791;SDS011;60907;53.268;8.764;2022-08-23T05:55:16;5.30;;;2.90;;
72791;SDS011;60907;53.268;8.764;2022-08-23T05:57:42;4.28;;;2.72;;
72791;SDS011;60907;53.268;8.764;2022-08-23T06:00:08;6.05;;;2.50;;
72791;SDS011;60907;53.268;8.764;2022-08-23T06:02:39;5.18;;;2.67;;
72791;SDS011;60907;53.268;8.764;2022-08-23T06:05:06;2.95;;;2.60;;
72791;SDS011;60907;53.268;8.764;2022-08-23T06:07:32;3.38;;;2.13;;
72791;SDS011;60907;53.268;8.764;2022-08-23T06:09:58;5.45;;;3.08;;
72791;SDS011;60907;53.268;8.764;2022-08-23T06:12:24;5.13;;;3.40;;
72791;SDS011;60907;53.268;8.764;2022-08-23T06:14:50;3.97;;;2.85;;
72791;SDS011;60907;53.268;8.764;2022-08-23T06:17:15;8.95;;;3.33;;
72791;SDS011;60907;53.268;8.764;2022-08-23T06:19:41;6.63;;;2.75;;
72791;SDS011;60907;53.268;8.764;2022-08-23T06:22:06;3.58;;;3.28;;
72791;SDS011;60907;53.268;8.764;2022-08-23T06:24:32;4.03;;;2.38;;
72791;SDS011;60907;53.268;8.764;2022-08-23T06:26:57;5.90;;;3.03;;
72791;SDS011;60907;53.268;8.764;2022-08-23T06:29:23;3.97;;;2.80;;
72791;SDS011;60907;53.268;8.764;2022-08-23T06:31:49;4.00;;;2.35;;
72791;SDS011;60907;53.268;8.764;2022-08-23T06:34:22;7.50;;;2.70;;
72791;SDS011;60907;53.268;8.764;2022-08-23T06:36:56;5.07;;;2.67;;
72791;SDS011;60907;53.268;8.764;2022-08-23T06:39:24;4.75;;;2.88;;
72791;SDS011;60907;53.268;8.764;2022-08-23T06:41:51;4.30;;;2.42;;
72791;SDS011;60907;53.268;8.764;2022-08-23T06:44:18;5.10;;;2.92;;
72791;SDS011;60907;53.268;8.764;2022-08-23T06:46:44;3.80;;;2.85;;
72791;SDS011;60907;53.268;8.764;2022-08-23T06:49:11;4.45;;;2.58;;
72791;SDS011;60907;53.268;8.764;2022-08-23T06:51:40;5.93;;;2.72;;
72791;SDS011;60907;53.268;8.764;2022-08-23T06:54:08;4.05;;;2.65;;
72791;SDS011;60907;53.268;8.764;2022-08-23T06:56:36;4.10;;;2.75;;
72791;SDS011;60907;53.268;8.764;2022-08-23T06:59:04;5.63;;;2.80;;
72791;SDS011;60907;53.268;8.764;2022-08-23T07:04:05;4.90;;;2.88;;
72791;SDS011;60907;53.268;8.764;2022-08-23T07:06:31;3.03;;;2.65;;
72791;SDS011;60907;53.268;8.764;2022-08-23T07:11:24;4.50;;;2.67;;
72791;SDS011;60907;53.268;8.764;2022-08-23T07:13:50;4.50;;;2.35;;
72791;SDS011;60907;53.268;8.764;2022-08-23T07:16:17;4.05;;;2.30;;
72791;SDS011;60907;53.268;8.764;2022-08-23T07:18:43;3.83;;;2.20;;
72791;SDS011;60907;53.268;8.764;2022-08-23T07:21:10;5.32;;;2.50;;
72791;SDS011;60907;53.268;8.764;2022-08-23T07:26:05;3.00;;;1.98;;
72791;SDS011;60907;53.268;8.764;2022-08-23T07:28:31;4.85;;;2.65;;
72791;SDS011;60907;53.268;8.764;2022-08-23T07:31:07;4.20;;;2.28;;
72791;SDS011;60907;53.268;8.764;2022-08-23T07:33:44;3.92;;;2.35;;
72791;SDS011;60907;53.268;8.764;2022-08-23T07:36:13;4.75;;;2.53;;
72791;SDS011;60907;53.268;8.764;2022-08-23T07:38:40;6.22;;;2.45;;
72791;SDS011;60907;53.268;8.764;2022-08-23T07:41:10;6.45;;;2.85;;
72791;SDS011;60907;53.268;8.764;2022-08-23T07:43:35;3.40;;;2.13;;
72791;SDS011;60907;53.268;8.764;2022-08-23T07:46:03;4.25;;;2.53;;
72791;SDS011;60907;53.268;8.764;2022-08-23T07:48:28;6.18;;;2.75;;
72791;SDS011;60907;53.268;8.764;2022-08-23T07:50:55;4.15;;;2.38;;
72791;SDS011;60907;53.268;8.764;2022-08-23T07:53:22;4.53;;;2.38;;
72791;SDS011;60907;53.268;8.764;2022-08-23T07:58:14;3.35;;;2.38;;
72791;SDS011;60907;53.268;8.764;2022-08-23T08:00:39;2.80;;;2.15;;
72791;SDS011;60907;53.268;8.764;2022-08-23T08:03:05;2.60;;;2.13;;
72791;SDS011;60907;53.268;8.764;2022-08-23T08:05:32;3.08;;;2.17;;
72791;SDS011;60907;53.268;8.764;2022-08-23T08:07:57;5.82;;;2.67;;
72791;SDS011;60907;53.268;8.764;2022-08-23T08:10:23;3.88;;;2.20;;
72791;SDS011;60907;53.268;8.764;2022-08-23T08:12:49;4.78;;;2.20;;
72791;SDS011;60907;53.268;8.764;2022-08-23T08:15:15;6.03;;;2.35;;
72791;SDS011;60907;53.268;8.764;2022-08-23T08:17:40;4.05;;;2.58;;
72791;SDS011;60907;53.268;8.764;2022-08-23T08:20:06;4.03;;;2.25;;
72791;SDS011;60907;53.268;8.764;2022-08-23T08:22:32;4.07;;;2.10;;
72791;SDS011;60907;53.268;8.764;2022-08-23T08:24:58;5.25;;;2.60;;
72791;SDS011;60907;53.268;8.764;2022-08-23T08:27:24;4.30;;;2.47;;
72791;SDS011;60907;53.268;8.764;2022-08-23T08:29:49;4.30;;;2.22;;
72791;SDS011;60907;53.268;8.764;2022-08-23T08:32:14;7.22;;;2.33;;
72791;SDS011;60907;53.268;8.764;2022-08-23T08:34:40;5.07;;;2.67;;
72791;SDS011;60907;53.268;8.764;2022-08-23T08:37:06;3.35;;;2.03;;
72791;SDS011;60907;53.268;8.764;2022-08-23T08:39:32;4.13;;;2.28;;
72791;SDS011;60907;53.268;8.764;2022-08-23T08:42:04;5.10;;;2.28;;
72791;SDS011;60907;53.268;8.764;2022-08-23T08:44:56;8.63;;;2.47;;
72791;SDS011;60907;53.268;8.764;2022-08-23T08:50:02;3.33;;;2.03;;
72791;SDS011;60907;53.268;8.764;2022-08-23T08:57:31;2.88;;;2.17;;
72791;SDS011;60907;53.268;8.764;2022-08-23T09:00:05;4.53;;;2.13;;
72791;SDS011;60907;53.268;8.764;2022-08-23T09:02:32;2.20;;;1.58;;
72791;SDS011;60907;53.268;8.764;2022-08-23T09:04:59;4.13;;;2.47;;
72791;SDS011;60907;53.268;8.764;2022-08-23T09:07:35;3.00;;;2.00;;
72791;SDS011;60907;53.268;8.764;2022-08-23T09:13:01;5.25;;;2.05;;
72791;SDS011;60907;53.268;8.764;2022-08-23T09:18:13;3.22;;;2.30;;
72791;SDS011;60907;53.268;8.764;2022-08-23T09:20:41;2.30;;;1.77;;
72791;SDS011;60907;53.268;8.764;2022-08-23T09:23:08;3.90;;;2.03;;
72791;SDS011;60907;53.268;8.764;2022-08-23T09:25:36;3.65;;;1.77;;
72791;SDS011;60907;53.268;8.764;2022-08-23T09:28:02;4.35;;;1.70;;
72791;SDS011;60907;53.268;8.764;2022-08-23T09:30:45;3.85;;;2.15;;
72791;SDS011;60907;53.268;8.764;2022-08-23T09:33:19;4.72;;;1.88;;
72791;SDS011;60907;53.268;8.764;2022-08-23T09:38:32;3.58;;;2.28;;
72791;SDS011;60907;53.268;8.764;2022-08-23T09:40:57;3.65;;;1.85;;
72791;SDS011;60907;53.268;8.764;2022-08-23T09:43:24;3.45;;;1.45;;
72791;SDS011;60907;53.268;8.764;2022-08-23T09:53:36;6.25;;;1.70;;
72791;SDS011;60907;53.268;8.764;2022-08-23T09:56:10;4.38;;;1.92;;
72791;SDS011;60907;53.268;8.764;2022-08-23T09:58:38;3.38;;;2.00;;
72791;SDS011;60907;53.268;8.764;2022-08-23T10:03:41;3.65;;;1.50;;
72791;SDS011;60907;53.268;8.764;2022-08-23T10:06:06;4.30;;;1.92;;
72791;SDS011;60907;53.268;8.764;2022-08-23T10:08:38;2.63;;;1.70;;
72791;SDS011;60907;53.268;8.764;2022-08-23T10:11:17;2.10;;;1.38;;
72791;SDS011;60907;53.268;8.764;2022-08-23T10:13:48;2.50;;;1.38;;
72791;SDS011;60907;53.268;8.764;2022-08-23T10:16:18;3.20;;;1.98;;
72791;SDS011;60907;53.268;8.764;2022-08-23T10:22:17;2.00;;;1.85;;
72791;SDS011;60907;53.268;8.764;2022-08-23T10:33:41;3.65;;;1.30;;
72791;SDS011;60907;53.268;8.764;2022-08-23T10:39:12;3.97;;;1.75;;
72791;SDS011;60907;53.268;8.764;2022-08-23T10:41:53;1.38;;;1.05;;
72791;SDS011;60907;53.268;8.764;2022-08-23T10:47:17;6.97;;;1.70;;
72791;SDS011;60907;53.268;8.764;2022-08-23T10:50:12;2.35;;;1.40;;
72791;SDS011;60907;53.268;8.764;2022-08-23T10:52:53;2.05;;;1.60;;
72791;SDS011;60907;53.268;8.764;2022-08-23T10:55:38;2.65;;;1.15;;
72791;SDS011;60907;53.268;8.764;2022-08-23T10:58:23;2.95;;;1.70;;
72791;SDS011;60907;53.268;8.764;2022-08-23T11:00:50;1.52;;;1.20;;
72791;SDS011;60907;53.268;8.764;2022-08-23T11:03:20;1.27;;;1.10;;
72791;SDS011;60907;53.268;8.764;2022-08-23T11:08:59;3.35;;;1.58;;
72791;SDS011;60907;53.268;8.764;2022-08-23T11:14:12;3.00;;;1.45;;
72791;SDS011;60907;53.268;8.764;2022-08-23T11:16:55;3.85;;;1.60;;
72791;SDS011;60907;53.268;8.764;2022-08-23T11:24:53;2.03;;;1.40;;
72791;SDS011;60907;53.268;8.764;2022-08-23T11:28:29;1.83;;;1.17;;
72791;SDS011;60907;53.268;8.764;2022-08-23T11:30:48;2.13;;;1.15;;
72791;SDS011;60907;53.268;8.764;2022-08-23T11:33:17;2.15;;;1.27;;
72791;SDS011;60907;53.268;8.764;2022-08-23T11:43:41;3.20;;;1.20;;
72791;SDS011;60907;53.268;8.764;2022-08-23T11:46:14;4.30;;;1.13;;
72791;SDS011;60907;53.268;8.764;2022-08-23T11:48:41;3.55;;;1.50;;
72791;SDS011;60907;53.268;8.764;2022-08-23T12:05:09;2.28;;;1.50;;
72791;SDS011;60907;53.268;8.764;2022-08-23T12:13:29;1.83;;;1.00;;
72791;SDS011;60907;53.268;8.764;2022-08-23T12:16:24;1.98;;;1.17;;
72791;SDS011;60907;53.268;8.764;2022-08-23T12:18:53;4.30;;;1.27;;
72791;SDS011;60907;53.268;8.764;2022-08-23T12:23:50;2.72;;;0.90;;
72791;SDS011;60907;53.268;8.764;2022-08-23T12:26:29;1.60;;;1.10;;
72791;SDS011;60907;53.268;8.764;2022-08-23T12:37:03;1.73;;;1.17;;
72791;SDS011;60907;53.268;8.764;2022-08-23T12:39:37;2.38;;;1.40;;
72791;SDS011;60907;53.268;8.764;2022-08-23T12:42:14;2.15;;;1.15;;
72791;SDS011;60907;53.268;8.764;2022-08-23T12:44:45;2.75;;;1.20;;
72791;SDS011;60907;53.268;8.764;2022-08-23T12:47:21;2.92;;;1.48;;
72791;SDS011;60907;53.268;8.764;2022-08-23T12:50:01;3.65;;;1.70;;
72791;SDS011;60907;53.268;8.764;2022-08-23T12:52:31;2.15;;;1.20;;
72791;SDS011;60907;53.268;8.764;2022-08-23T12:54:58;3.13;;;0.93;;
72791;SDS011;60907;53.268;8.764;2022-08-23T12:57:28;2.08;;;1.15;;
72791;SDS011;60907;53.268;8.764;2022-08-23T13:00:00;3.40;;;1.30;;
72791;SDS011;60907;53.268;8.764;2022-08-23T13:02:39;1.55;;;1.33;;
72791;SDS011;60907;53.268;8.764;2022-08-23T13:05:08;4.45;;;1.25;;
72791;SDS011;60907;53.268;8.764;2022-08-23T13:07:37;4.55;;;1.42;;
72791;SDS011;60907;53.268;8.764;2022-08-23T13:12:29;2.42;;;1.27;;
72791;SDS011;60907;53.268;8.764;2022-08-23T13:14:55;1.98;;;0.90;;
72791;SDS011;60907;53.268;8.764;2022-08-23T13:20:11;1.60;;;1.30;;
72791;SDS011;60907;53.268;8.764;2022-08-23T13:22:57;1.90;;;1.27;;
72791;SDS011;60907;53.268;8.764;2022-08-23T13:25:32;2.17;;;1.35;;
72791;SDS011;60907;53.268;8.764;2022-08-23T13:31:24;1.95;;;1.23;;
72791;SDS011;60907;53.268;8.764;2022-08-23T13:33:51;1.40;;;1.17;;
72791;SDS011;60907;53.268;8.764;2022-08-23T13:36:23;3.33;;;1.00;;
72791;SDS011;60907;53.268;8.764;2022-08-23T13:38:55;2.78;;;1.45;;
72791;SDS011;60907;53.268;8.764;2022-08-23T13:41:31;3.50;;;1.52;;
72791;SDS011;60907;53.268;8.764;2022-08-23T13:44:04;2.78;;;1.30;;
72791;SDS011;60907;53.268;8.764;2022-08-23T13:46:32;1.85;;;1.10;;
72791;SDS011;60907;53.268;8.764;2022-08-23T13:49:15;1.48;;;1.25;;
72791;SDS011;60907;53.268;8.764;2022-08-23T13:52:29;2.88;;;1.10;;
72791;SDS011;60907;53.268;8.764;2022-08-23T13:54:51;3.15;;;1.17;;
72791;SDS011;60907;53.268;8.764;2022-08-23T13:57:20;3.40;;;1.00;;
72791;SDS011;60907;53.268;8.764;2022-08-23T13:59:53;1.73;;;1.15;;
72791;SDS011;60907;53.268;8.764;2022-08-23T14:05:53;1.55;;;1.45;;
72791;SDS011;60907;53.268;8.764;2022-08-23T14:08:20;1.02;;;0.93;;
72791;SDS011;60907;53.268;8.764;2022-08-23T14:10:46;1.85;;;1.35;;
72791;SDS011;60907;53.268;8.764;2022-08-23T14:13:27;1.92;;;1.17;;
72791;SDS011;60907;53.268;8.764;2022-08-23T14:15:53;2.45;;;1.27;;
72791;SDS011;60907;53.268;8.764;2022-08-23T14:21:55;2.63;;;1.45;;
72791;SDS011;60907;53.268;8.764;2022-08-23T14:24:24;1.58;;;1.35;;
72791;SDS011;60907;53.268;8.764;2022-08-23T14:26:51;2.97;;;1.13;;
72791;SDS011;60907;53.268;8.764;2022-08-23T14:29:17;1.40;;;0.93;;
72791;SDS011;60907;53.268;8.764;2022-08-23T14:31:46;1.35;;;1.25;;
72791;SDS011;60907;53.268;8.764;2022-08-23T14:37:08;3.90;;;1.20;;
72791;SDS011;60907;53.268;8.764;2022-08-23T14:39:38;1.85;;;1.10;;
72791;SDS011;60907;53.268;8.764;2022-08-23T14:42:05;1.70;;;1.38;;
72791;SDS011;60907;53.268;8.764;2022-08-23T14:44:37;3.58;;;1.60;;
72791;SDS011;60907;53.268;8.764;2022-08-23T14:47:13;1.80;;;1.20;;
72791;SDS011;60907;53.268;8.764;2022-08-23T14:49:52;1.70;;;1.17;;
72791;SDS011;60907;53.268;8.764;2022-08-23T14:52:19;2.50;;;1.42;;
72791;SDS011;60907;53.268;8.764;2022-08-23T14:54:51;1.95;;;1.33;;
72791;SDS011;60907;53.268;8.764;2022-08-23T14:57:29;1.92;;;1.40;;
72791;SDS011;60907;53.268;8.764;2022-08-23T14:59:55;2.67;;;1.20;;
72791;SDS011;60907;53.268;8.764;2022-08-23T15:02:34;1.45;;;0.90;;
72791;SDS011;60907;53.268;8.764;2022-08-23T15:05:06;2.05;;;1.15;;
72791;SDS011;60907;53.268;8.764;2022-08-23T15:07:41;3.53;;;1.35;;
72791;SDS011;60907;53.268;8.764;2022-08-23T15:10:19;1.38;;;1.25;;
72791;SDS011;60907;53.268;8.764;2022-08-23T15:12:45;1.52;;;1.35;;
72791;SDS011;60907;53.268;8.764;2022-08-23T15:15:23;1.65;;;1.30;;
72791;SDS011;60907;53.268;8.764;2022-08-23T15:17:54;1.20;;;1.00;;
72791;SDS011;60907;53.268;8.764;2022-08-23T15:20:47;2.58;;;1.25;;
72791;SDS011;60907;53.268;8.764;2022-08-23T15:23:17;1.85;;;0.93;;
72791;SDS011;60907;53.268;8.764;2022-08-23T15:25:48;3.90;;;1.15;;
72791;SDS011;60907;53.268;8.764;2022-08-23T15:28:16;1.58;;;1.20;;
72791;SDS011;60907;53.268;8.764;2022-08-23T15:31:03;2.45;;;1.30;;
72791;SDS011;60907;53.268;8.764;2022-08-23T15:35:57;3.17;;;1.25;;
72791;SDS011;60907;53.268;8.764;2022-08-23T15:38:28;4.00;;;1.45;;
72791;SDS011;60907;53.268;8.764;2022-08-23T15:40:55;2.20;;;1.45;;
72791;SDS011;60907;53.268;8.764;2022-08-23T15:49:55;2.92;;;1.17;;
72791;SDS011;60907;53.268;8.764;2022-08-23T15:52:30;1.52;;;1.33;;
72791;SDS011;60907;53.268;8.764;2022-08-23T15:55:27;4.63;;;1.40;;
72791;SDS011;60907;53.268;8.764;2022-08-23T15:57:57;4.65;;;1.10;;
72791;SDS011;60907;53.268;8.764;2022-08-23T16:00:24;1.63;;;1.25;;
72791;SDS011;60907;53.268;8.764;2022-08-23T16:02:56;2.45;;;1.42;;
72791;SDS011;60907;53.268;8.764;2022-08-23T16:06:01;7.03;;;1.33;;
72791;SDS011;60907;53.268;8.764;2022-08-23T16:08:30;2.33;;;0.95;;
72791;SDS011;60907;53.268;8.764;2022-08-23T16:13:33;2.63;;;1.50;;
72791;SDS011;60907;53.268;8.764;2022-08-23T16:16:00;1.98;;;1.13;;
72791;SDS011;60907;53.268;8.764;2022-08-23T16:18:35;2.90;;;1.27;;
72791;SDS011;60907;53.268;8.764;2022-08-23T16:21:03;5.88;;;1.55;;
72791;SDS011;60907;53.268;8.764;2022-08-23T16:23:58;4.22;;;1.30;;
72791;SDS011;60907;53.268;8.764;2022-08-23T16:26:29;5.18;;;1.30;;
72791;SDS011;60907;53.268;8.764;2022-08-23T16:29:03;5.00;;;1.00;;
72791;SDS011;60907;53.268;8.764;2022-08-23T16:32:35;2.17;;;1.30;;
72791;SDS011;60907;53.268;8.764;2022-08-23T16:35:23;9.40;;;1.95;;
72791;SDS011;60907;53.268;8.764;2022-08-23T16:37:49;4.25;;;0.93;;
72791;SDS011;60907;53.268;8.764;2022-08-23T16:40:19;2.97;;;1.35;;
72791;SDS011;60907;53.268;8.764;2022-08-23T16:42:49;4.32;;;1.83;;
72791;SDS011;60907;53.268;8.764;2022-08-23T16:45:18;2.35;;;1.40;;
72791;SDS011;60907;53.268;8.764;2022-08-23T16:51:37;4.07;;;1.17;;
72791;SDS011;60907;53.268;8.764;2022-08-23T16:53:50;4.55;;;1.13;;
72791;SDS011;60907;53.268;8.764;2022-08-23T16:56:22;3.53;;;1.25;;
72791;SDS011;60907;53.268;8.764;2022-08-23T16:59:02;2.20;;;1.40;;
72791;SDS011;60907;53.268;8.764;2022-08-23T17:01:47;2.42;;;1.15;;
72791;SDS011;60907;53.268;8.764;2022-08-23T17:04:19;2.08;;;1.42;;
72791;SDS011;60907;53.268;8.764;2022-08-23T17:06:48;1.65;;;1.30;;
72791;SDS011;60907;53.268;8.764;2022-08-23T17:09:35;2.97;;;1.23;;
72791;SDS011;60907;53.268;8.764;2022-08-23T17:12:00;3.25;;;1.02;;
72791;SDS011;60907;53.268;8.764;2022-08-23T17:14:36;2.35;;;1.40;;
72791;SDS011;60907;53.268;8.764;2022-08-23T17:17:02;4.93;;;1.50;;
72791;SDS011;60907;53.268;8.764;2022-08-23T17:19:47;1.90;;;1.20;;
72791;SDS011;60907;53.268;8.764;2022-08-23T17:22:16;5.63;;;1.40;;
72791;SDS011;60907;53.268;8.764;2022-08-23T17:24:41;8.25;;;1.75;;
72791;SDS011;60907;53.268;8.764;2022-08-23T17:27:07;3.17;;;1.27;;
72791;SDS011;60907;53.268;8.764;2022-08-23T17:29:32;3.90;;;1.20;;